Anza Borrego Desert State Park, California Weather observations

Data are for 10 minute period ending at time listed.
 Day   Time   Solar   Ave.   Ave.  Ave.  Vector  Max.   Baro.   Total    
  of    of     Rad.   Air    Rel.  Wind   Wind   Wind  Press.  Precip.   
Year   Day            Temp.  Hum.  Speed  Dir.   Gust                    
2026   (PST)  Kw/m2    F      %     mph   deg.    mph    mb.     in.     
-------------------------------------------------------------------------
 125   13:30   0.98   70.8    28   11.8   242    24.1   983.6    0.00 
 125   13:40   0.92   70.4    28   10.4   251    19.4   983.5    0.00 
 125   13:50   0.89   70.4    26    9.5   254    20.5   983.4    0.00 
 125   14:00   0.86   70.9    27   15.6   235    33.1   983.2    0.00 
 125   14:10   0.84   70.2    27   17.1   248    24.6   983.1    0.00 
 125   14:20   0.81   70.5    26    9.6   249    24.3   983.1    0.00 
 125   14:30   0.79   70.7    26   16.2   244    27.6   982.9    0.00 
 125   14:40   0.76   70.3    26   14.1   236    26.8   983.0    0.00 
 125   14:50   0.73   70.4    25   16.1   238    26.1   982.9    0.00 
 125   15:00   0.70   69.9    26   13.8   252    29.2   982.7    0.00 
 125   15:10   0.67   70.1    27   14.5   258    25.3   982.5    0.00 
 125   15:20   0.64   69.8    27   15.9   233    25.4   982.5    0.00 
 125   15:30   0.61   69.6    29   14.4   241    24.2   982.5    0.00 
 125   15:40   0.57   69.7    30   18.7   227    25.7   982.3    0.00 
 125   15:50   0.54   69.1    31   20.2   228    28.6   982.2    0.00 
 125   16:00   0.51   69.1    30   21.2   224    30.0   981.9    0.00 
 125   16:10   0.47   68.9    30   20.4   226    32.1   981.9    0.00 
 125   16:20   0.44   69.2    30   18.3   244    30.8   981.8    0.00 
 125   16:30   0.40   69.0    30   19.1   244    30.2   981.6    0.00 
 125   16:40   0.36   68.8    30   17.9   260    26.8   981.6    0.00 
 125   16:50   0.32   68.6    30   18.0   262    27.5   981.5    0.00 
 125   17:00   0.29   69.0    29   13.0   267    23.2   981.5    0.00 
 125   17:10   0.25   69.3    29   11.5   265    19.8   981.6    0.00 
 125   17:20   0.20   68.7    30    9.0   266    18.7   981.6    0.00 
 125   17:30   0.03   67.8    30    7.6   294    17.9   981.7    0.00 
 125   17:40   0.03   67.5    31    9.1   298    18.2   981.7    0.00 
 125   17:50   0.02   66.8    33   10.0   320    22.7   981.8    0.00 
 125   18:00   0.02   65.9    35    9.3   330    23.8   981.8    0.00 
 125   18:10   0.01   65.8    35    4.8   281    13.1   982.1    0.00 
 125   18:20   0.01   65.6    36    3.4     3    17.9   982.3    0.00 
 125   18:30   0.01   64.8    38    5.4   240    14.2   982.5    0.00 
 125   18:40   0.00   64.7    38    4.6   255    10.6   982.6    0.00 
 125   18:50   0.00   64.8    38    7.3   322    16.4   982.6    0.00 
 125   19:00   0.00   64.3    39    5.9   301    13.8   982.8    0.00 
 125   19:10   0.00   64.3    38    4.8   264    12.8   982.9    0.00 
 125   19:20   0.00   64.4    38    5.0   244    11.3   983.0    0.00 
 125   19:30   0.00   64.5    38    4.1   279    11.3   983.1    0.00 
 125   19:40   0.00   64.3    38    3.3   287     6.5   983.2    0.00 
 125   19:50   0.00   64.0    38    3.1   219     5.4   983.5    0.00 
 125   20:00   0.00   63.4    40    2.6   123     7.1   983.6    0.00 
 125   20:10   0.00   63.2    40    2.0   242     4.5   983.8    0.00 
 125   20:20   0.00   63.2    40    1.2   259     2.2   984.0    0.00 
 125   20:30   0.00   63.1    40    3.0   354    10.1   984.2    0.00 
 125   20:40   0.00   63.6    40    4.2   265     9.4   984.3    0.00 
 125   20:50   0.00   62.5    41    3.3   240     7.2   984.4    0.00 
 125   21:00   0.00   62.5    42    2.8   258     5.0   984.5    0.00 
 125   21:10   0.00   61.8    42    2.5   303     6.9   984.6    0.00 
 125   21:20   0.00   62.4    43    7.5   301    14.5   984.7    0.00 
 125   21:30   0.00   62.9    43    9.0   306    14.3   984.8    0.00 
 125   21:40   0.00   62.6    43    4.2   294     8.9   984.8    0.00 
 125   21:50   0.00   62.5    44    6.3   316    11.7   984.9    0.00 
 125   22:00   0.00   62.6    43    8.3   316    15.2   984.8    0.00 
 125   22:10   0.00   62.9    42    9.2   314    15.7   984.8    0.00 
 125   22:20   0.00   62.9    43    8.1   306    11.8   984.8    0.00 
 125   22:30   0.00   62.3    43    4.5   262    11.7   984.9    0.00 
 125   22:40   0.00   61.1    45    2.7   257     5.4   985.0    0.00 
 125   22:50   0.00   60.3    46    3.4   191     4.2   985.1    0.00 
 125   23:00   0.00   58.5    48    4.5   206     5.6   985.1    0.00 
 125   23:10   0.00   57.9    49    2.7   215     3.8   985.2    0.00 
 125   23:20   0.00   56.5    50    3.5   219     5.4   985.2    0.00 
 125   23:30   0.00   56.8    50    4.8   234     5.6   985.2    0.00 
 125   23:40   0.00   56.6    50    5.4   240     7.7   985.2    0.00 
 125   23:50   0.00   57.1    49    4.9   246     6.4   985.1    0.00 
 126    0:00   0.00   56.0    51    3.0   252     5.3   985.1    0.00 
 126    0:10   0.00   56.7    50    5.4   237     6.6   985.0    0.00 
 126    0:20   0.00   56.1    51    6.3   241     7.2   985.0    0.00 
 126    0:30   0.00   55.0    53    5.0   237     7.2   985.0    0.00 
 126    0:40   0.00   56.1    51    3.4   243     5.8   984.9    0.00 
 126    0:50   0.00   55.7    52    2.5   206     3.4   984.8    0.00 
 126    1:00   0.00   55.3    52    2.6   220     3.1   984.7    0.00 
 126    1:10   0.00   54.8    52    2.6   227     5.1   984.7    0.00 
 126    1:20   0.00   54.2    52    1.5   239     3.8   984.7    0.00 
 126    1:30   0.00   53.8    53    1.8   281     4.7   984.7    0.00 
 126    1:40   0.00   55.1    52    1.8   210     3.1   984.7    0.00 
 126    1:50   0.00   54.3    52    3.4   218     4.8   984.6    0.00 
 126    2:00   0.00   53.5    53    4.0   228     5.3   984.6    0.00 
 126    2:10   0.00   53.7    53    2.1   291     3.3   984.6    0.00 
 126    2:20   0.00   54.7    55    3.2   346     4.4   984.7    0.00 
 126    2:30   0.00   55.5    54    2.0   311     2.8   984.7    0.00 
 126    2:40   0.00   54.2    55    2.6   258     4.9   984.7    0.00 
 126    2:50   0.00   52.5    57    4.1   257     4.7   984.7    0.00 
 126    3:00   0.00   52.7    55    3.0   295     3.9   984.7    0.00 
 126    3:10   0.00   53.5    56    4.1   325     5.3   984.8    0.00 
 126    3:20   0.00   54.1    55    2.9   300     3.5   984.8    0.00 
 126    3:30   0.00   52.5    57    3.4   257     4.6   984.8    0.00 
 126    3:40   0.00   52.3    57    3.0   266     4.1   984.9    0.00 
 126    3:50   0.00   52.0    57    1.8   251     2.8   984.9    0.00 
 126    4:00   0.00   51.9    57    4.3   220     5.5   984.9    0.00 
 126    4:10   0.00   51.4    59    5.0   230     6.1   985.0    0.00 
 126    4:20   0.00   51.9    57    5.8   246     6.7   985.0    0.00 
 126    4:30   0.00   53.0    54    5.0   256     6.1   985.0    0.00 
 126    4:40   0.00   52.8    54    3.5   254     5.0   985.1    0.00 
 126    4:50   0.00   51.9    56    2.9   246     3.5   985.2    0.00 
 126    5:00   0.01   51.3    56    2.8   256     3.9   985.3    0.00 
 126    5:10   0.01   52.9    54    3.6   240     4.5   985.4    0.00 
 126    5:20   0.03   54.0    52    3.3   248     4.1   985.6    0.00 
 126    5:30   0.06   55.1    50    4.0   254     5.5   985.7    0.00 
 126    5:40   0.10   56.7    48    3.1   228     3.7   985.9    0.00 
 126    5:50   0.13   59.3    44    1.7   231     2.2   986.0    0.00 
 126    6:00   0.17   61.4    42    1.2   229     2.6   986.0    0.00 
 126    6:10   0.20   63.6    40    1.7    71     3.9   986.2    0.00 
 126    6:20   0.23   62.4    42    2.3    53     3.4   986.3    0.00 
 126    6:30   0.27   63.2    41    0.8    64     2.2   986.4    0.00 
 126    6:40   0.31   64.5    39    1.1    52     2.6   986.5    0.00 
 126    6:50   0.34   65.0    38    1.3    32     3.4   986.6    0.00 
 126    7:00   0.38   65.4    38    0.7    10     2.3   986.6    0.00 
 126    7:10   0.41   66.8    36    1.0   107     2.5   986.5    0.00 
 126    7:20   0.45   67.4    35    1.3   130     3.5   986.5    0.00 
 126    7:30   0.48   68.1    34    1.7    89     4.5   986.5    0.00 
 126    7:40   0.52   68.2    33    1.6    82     3.6   986.6    0.00 
 126    7:50   0.55   69.0    33    1.5   119     4.2   986.6    0.00 
 126    8:00   0.59   69.1    33    3.0   143     6.0   986.7    0.00 
 126    8:10   0.62   70.3    31    1.0   116     2.7   986.7    0.00 
 126    8:20   0.65   71.2    30    2.1   165     5.6   986.7    0.00 
 126    8:30   0.68   71.1    30    2.4   127     5.2   986.8    0.00 
 126    8:40   0.71   72.0    28    2.4   137     5.3   986.8    0.00 
 126    8:50   0.73   72.6    27    3.0   118     6.7   986.9    0.00 
 126    9:00   0.76   73.2    26    2.5    70     6.4   986.9    0.00 
 126    9:10   0.79   73.5    26    3.6    92     7.5   987.0    0.00 
 126    9:20   0.81   74.5    25    4.5   118     8.3   987.0    0.00 
 126    9:30   0.83   74.6    25    4.5   133     8.7   987.0    0.00 
 126    9:40   0.85   74.8    25    4.8   120     8.0   987.0    0.00 
 126    9:50   0.87   75.1    24    5.3   120     9.5   987.0    0.00 
 126   10:00   0.89   76.4    24    5.5   123    10.0   986.9    0.00 
 126   10:10   0.91   76.8    23    4.2   104     8.3   986.8    0.00 
 126   10:20   0.92   77.2    23    4.4    78    10.6   986.8    0.00 
 126   10:30   0.93   77.4    22    4.4   108     9.1   986.8    0.00 
 126   10:40   0.95   78.3    21    3.8    98    10.4   986.7    0.00 
 126   10:50   0.95   78.6    20    5.8   102    10.7   986.6    0.00 
 126   11:00   0.96   78.6    20    3.9    30     8.0   986.5    0.00 
 126   11:10   0.97   79.5    19    4.1   113    10.3   986.4    0.00 
 126   11:20   0.97   79.9    18    3.3   134     7.8   986.4    0.00 
 126   11:30   0.98   80.3    17    6.6   117    14.0   986.3    0.00 
 126   11:40   0.98   80.4    17    5.2    90    13.3   986.2    0.00 
 126   11:50   0.98   81.2    17    7.9    86    15.9   986.1    0.00 
 126   12:00   0.98   81.5    17    7.9    89    14.2   986.0    0.00 
 126   12:10   0.97   80.7    17    5.8   128    13.4   985.8    0.00 
 126   12:20   0.97   81.6    16    8.3   111    14.0   985.7    0.00 
 126   12:30   0.96   81.7    16    4.7   113     9.0   985.6    0.00 
 126   12:40   0.94   82.4    16    6.7    88    12.2   985.5    0.00 
 126   12:50   0.95   82.1    16    5.7    83    11.8   985.4    0.00 
 126   13:00   0.94   82.9    16    6.5    86    11.4   985.3    0.00 
 126   13:10   0.93   83.9    15    1.9   108     8.1   985.2    0.00 
 126   13:20   0.91   84.3    15    6.3   103    10.7   985.0    0.00 

Return to Anza Borrego Desert State Park graphs page.


Western Regional Climate Center,wrcc@dri.edu